sensor_id;sensor_type;location;lat;lon;timestamp;P1;durP1;ratioP1;P2;durP2;ratioP2
46651;SDS011;32377;52.182;5.398;2023-03-25T00:01:37;21.10;;;2.70;;
46651;SDS011;32377;52.182;5.398;2023-03-25T00:04:03;8.63;;;2.17;;
46651;SDS011;32377;52.182;5.398;2023-03-25T00:06:31;13.80;;;2.60;;
46651;SDS011;32377;52.182;5.398;2023-03-25T00:09:00;21.90;;;2.95;;
46651;SDS011;32377;52.182;5.398;2023-03-25T00:11:28;18.23;;;3.10;;
46651;SDS011;32377;52.182;5.398;2023-03-25T00:13:54;19.60;;;2.80;;
46651;SDS011;32377;52.182;5.398;2023-03-25T00:16:19;12.93;;;2.35;;
46651;SDS011;32377;52.182;5.398;2023-03-25T00:18:45;13.90;;;3.17;;
46651;SDS011;32377;52.182;5.398;2023-03-25T00:21:12;15.60;;;2.72;;
46651;SDS011;32377;52.182;5.398;2023-03-25T00:23:38;17.80;;;3.25;;
46651;SDS011;32377;52.182;5.398;2023-03-25T00:26:05;14.38;;;2.38;;
46651;SDS011;32377;52.182;5.398;2023-03-25T00:28:32;15.05;;;2.40;;
46651;SDS011;32377;52.182;5.398;2023-03-25T00:31:00;13.80;;;2.50;;
46651;SDS011;32377;52.182;5.398;2023-03-25T00:33:28;21.88;;;2.97;;
46651;SDS011;32377;52.182;5.398;2023-03-25T00:35:55;15.77;;;3.08;;
46651;SDS011;32377;52.182;5.398;2023-03-25T00:38:29;13.85;;;3.25;;
46651;SDS011;32377;52.182;5.398;2023-03-25T00:41:19;22.27;;;4.05;;
46651;SDS011;32377;52.182;5.398;2023-03-25T00:43:52;27.00;;;3.83;;
46651;SDS011;32377;52.182;5.398;2023-03-25T00:46:21;23.75;;;3.22;;
46651;SDS011;32377;52.182;5.398;2023-03-25T00:48:48;18.80;;;3.65;;
46651;SDS011;32377;52.182;5.398;2023-03-25T00:51:14;17.88;;;3.47;;
46651;SDS011;32377;52.182;5.398;2023-03-25T00:53:43;17.20;;;2.70;;
46651;SDS011;32377;52.182;5.398;2023-03-25T00:56:09;17.23;;;3.33;;
46651;SDS011;32377;52.182;5.398;2023-03-25T00:58:36;16.90;;;3.25;;
46651;SDS011;32377;52.182;5.398;2023-03-25T01:01:12;15.77;;;2.72;;
46651;SDS011;32377;52.182;5.398;2023-03-25T01:03:39;23.50;;;3.30;;
46651;SDS011;32377;52.182;5.398;2023-03-25T01:06:11;13.52;;;2.83;;
46651;SDS011;32377;52.182;5.398;2023-03-25T01:08:38;17.35;;;2.85;;
46651;SDS011;32377;52.182;5.398;2023-03-25T01:11:05;19.52;;;3.60;;
46651;SDS011;32377;52.182;5.398;2023-03-25T01:13:46;23.60;;;2.95;;
46651;SDS011;32377;52.182;5.398;2023-03-25T01:16:12;18.02;;;2.97;;
46651;SDS011;32377;52.182;5.398;2023-03-25T01:18:37;15.13;;;2.80;;
46651;SDS011;32377;52.182;5.398;2023-03-25T01:21:04;19.25;;;3.70;;
46651;SDS011;32377;52.182;5.398;2023-03-25T01:23:30;19.45;;;2.72;;
46651;SDS011;32377;52.182;5.398;2023-03-25T01:25:56;18.75;;;2.47;;
46651;SDS011;32377;52.182;5.398;2023-03-25T01:28:21;29.08;;;3.47;;
46651;SDS011;32377;52.182;5.398;2023-03-25T01:30:47;25.70;;;3.45;;
46651;SDS011;32377;52.182;5.398;2023-03-25T01:33:12;18.02;;;3.03;;
46651;SDS011;32377;52.182;5.398;2023-03-25T01:35:38;22.20;;;3.03;;
46651;SDS011;32377;52.182;5.398;2023-03-25T01:38:04;25.33;;;3.55;;
46651;SDS011;32377;52.182;5.398;2023-03-25T01:40:30;15.77;;;2.67;;
46651;SDS011;32377;52.182;5.398;2023-03-25T01:42:56;17.80;;;3.25;;
46651;SDS011;32377;52.182;5.398;2023-03-25T01:45:25;19.90;;;3.45;;
46651;SDS011;32377;52.182;5.398;2023-03-25T01:53:28;12.98;;;3.30;;
46651;SDS011;32377;52.182;5.398;2023-03-25T01:55:56;21.17;;;3.80;;
46651;SDS011;32377;52.182;5.398;2023-03-25T01:58:26;17.60;;;3.55;;
46651;SDS011;32377;52.182;5.398;2023-03-25T02:00:53;16.15;;;3.42;;
46651;SDS011;32377;52.182;5.398;2023-03-25T02:03:20;16.98;;;3.78;;
46651;SDS011;32377;52.182;5.398;2023-03-25T02:08:23;18.08;;;3.13;;
46651;SDS011;32377;52.182;5.398;2023-03-25T02:10:49;16.33;;;3.65;;
46651;SDS011;32377;52.182;5.398;2023-03-25T02:13:16;21.77;;;3.97;;
46651;SDS011;32377;52.182;5.398;2023-03-25T02:18:33;15.05;;;2.97;;
46651;SDS011;32377;52.182;5.398;2023-03-25T02:27:17;15.38;;;3.40;;
46651;SDS011;32377;52.182;5.398;2023-03-25T02:44:35;18.25;;;3.30;;
46651;SDS011;32377;52.182;5.398;2023-03-25T02:47:14;17.10;;;3.10;;
46651;SDS011;32377;52.182;5.398;2023-03-25T02:49:44;16.15;;;3.70;;
46651;SDS011;32377;52.182;5.398;2023-03-25T02:54:56;14.55;;;2.80;;
46651;SDS011;32377;52.182;5.398;2023-03-25T02:57:25;25.67;;;4.10;;
46651;SDS011;32377;52.182;5.398;2023-03-25T02:59:53;21.60;;;3.50;;
46651;SDS011;32377;52.182;5.398;2023-03-25T03:02:21;19.48;;;4.22;;
46651;SDS011;32377;52.182;5.398;2023-03-25T03:04:51;19.00;;;3.00;;
46651;SDS011;32377;52.182;5.398;2023-03-25T03:07:23;27.38;;;4.93;;
46651;SDS011;32377;52.182;5.398;2023-03-25T03:13:03;20.77;;;3.42;;
46651;SDS011;32377;52.182;5.398;2023-03-25T03:16:02;17.92;;;3.58;;
46651;SDS011;32377;52.182;5.398;2023-03-25T03:23:59;25.88;;;4.80;;
46651;SDS011;32377;52.182;5.398;2023-03-25T03:29:27;22.10;;;4.40;;
46651;SDS011;32377;52.182;5.398;2023-03-25T03:31:59;22.60;;;5.00;;
46651;SDS011;32377;52.182;5.398;2023-03-25T03:34:29;20.83;;;5.25;;
46651;SDS011;32377;52.182;5.398;2023-03-25T03:37:07;23.25;;;4.30;;
46651;SDS011;32377;52.182;5.398;2023-03-25T03:39:35;24.83;;;5.72;;
46651;SDS011;32377;52.182;5.398;2023-03-25T03:42:05;24.83;;;5.32;;
46651;SDS011;32377;52.182;5.398;2023-03-25T03:44:38;26.00;;;4.90;;
46651;SDS011;32377;52.182;5.398;2023-03-25T03:47:11;19.27;;;5.15;;
46651;SDS011;32377;52.182;5.398;2023-03-25T03:49:43;18.70;;;4.50;;
46651;SDS011;32377;52.182;5.398;2023-03-25T03:52:17;28.75;;;5.55;;
46651;SDS011;32377;52.182;5.398;2023-03-25T03:54:54;25.83;;;5.00;;
46651;SDS011;32377;52.182;5.398;2023-03-25T03:57:25;27.83;;;5.20;;
46651;SDS011;32377;52.182;5.398;2023-03-25T04:00:08;28.70;;;6.38;;
46651;SDS011;32377;52.182;5.398;2023-03-25T04:05:14;30.60;;;5.25;;
46651;SDS011;32377;52.182;5.398;2023-03-25T04:07:46;20.27;;;4.75;;
46651;SDS011;32377;52.182;5.398;2023-03-25T04:10:27;24.27;;;4.93;;
46651;SDS011;32377;52.182;5.398;2023-03-25T04:13:03;23.08;;;4.50;;
46651;SDS011;32377;52.182;5.398;2023-03-25T04:15:35;28.50;;;4.80;;
46651;SDS011;32377;52.182;5.398;2023-03-25T04:18:02;25.10;;;5.20;;
46651;SDS011;32377;52.182;5.398;2023-03-25T04:20:28;39.83;;;4.93;;
46651;SDS011;32377;52.182;5.398;2023-03-25T04:22:58;32.30;;;5.53;;
46651;SDS011;32377;52.182;5.398;2023-03-25T04:25:23;25.15;;;5.10;;
46651;SDS011;32377;52.182;5.398;2023-03-25T04:27:49;30.55;;;5.43;;
46651;SDS011;32377;52.182;5.398;2023-03-25T04:30:17;37.42;;;5.40;;
46651;SDS011;32377;52.182;5.398;2023-03-25T04:32:44;22.33;;;4.40;;
46651;SDS011;32377;52.182;5.398;2023-03-25T04:35:14;25.65;;;4.75;;
46651;SDS011;32377;52.182;5.398;2023-03-25T04:37:41;24.50;;;5.15;;
46651;SDS011;32377;52.182;5.398;2023-03-25T04:40:09;27.55;;;5.60;;
46651;SDS011;32377;52.182;5.398;2023-03-25T04:42:37;21.33;;;3.97;;
46651;SDS011;32377;52.182;5.398;2023-03-25T04:45:06;19.23;;;5.05;;
46651;SDS011;32377;52.182;5.398;2023-03-25T04:47:38;11.50;;;2.65;;
46651;SDS011;32377;52.182;5.398;2023-03-25T04:50:13;11.68;;;3.03;;
46651;SDS011;32377;52.182;5.398;2023-03-25T04:52:42;17.23;;;2.20;;
46651;SDS011;32377;52.182;5.398;2023-03-25T04:55:08;15.43;;;3.17;;
46651;SDS011;32377;52.182;5.398;2023-03-25T04:59:12;16.83;;;2.97;;
46651;SDS011;32377;52.182;5.398;2023-03-25T05:01:38;21.38;;;3.85;;
46651;SDS011;32377;52.182;5.398;2023-03-25T05:04:09;25.08;;;5.22;;
46651;SDS011;32377;52.182;5.398;2023-03-25T05:06:40;30.50;;;6.35;;
46651;SDS011;32377;52.182;5.398;2023-03-25T05:09:11;21.95;;;4.70;;
46651;SDS011;32377;52.182;5.398;2023-03-25T05:11:39;31.42;;;6.22;;
46651;SDS011;32377;52.182;5.398;2023-03-25T05:14:06;27.17;;;5.47;;
46651;SDS011;32377;52.182;5.398;2023-03-25T05:16:33;29.98;;;5.38;;
46651;SDS011;32377;52.182;5.398;2023-03-25T05:18:59;35.38;;;5.28;;
46651;SDS011;32377;52.182;5.398;2023-03-25T05:21:27;30.95;;;6.07;;
46651;SDS011;32377;52.182;5.398;2023-03-25T05:23:53;31.42;;;5.55;;
46651;SDS011;32377;52.182;5.398;2023-03-25T05:26:19;24.02;;;5.32;;
46651;SDS011;32377;52.182;5.398;2023-03-25T05:28:45;33.97;;;4.80;;
46651;SDS011;32377;52.182;5.398;2023-03-25T05:31:15;23.63;;;4.55;;
46651;SDS011;32377;52.182;5.398;2023-03-25T05:33:41;35.33;;;5.35;;
46651;SDS011;32377;52.182;5.398;2023-03-25T05:36:16;28.42;;;4.07;;
46651;SDS011;32377;52.182;5.398;2023-03-25T05:41:09;32.50;;;5.47;;
46651;SDS011;32377;52.182;5.398;2023-03-25T05:43:43;35.47;;;5.65;;
46651;SDS011;32377;52.182;5.398;2023-03-25T05:46:11;27.52;;;4.50;;
46651;SDS011;32377;52.182;5.398;2023-03-25T05:48:38;27.70;;;4.00;;
46651;SDS011;32377;52.182;5.398;2023-03-25T05:51:05;36.25;;;5.88;;
46651;SDS011;32377;52.182;5.398;2023-03-25T05:53:37;43.17;;;6.00;;
46651;SDS011;32377;52.182;5.398;2023-03-25T05:56:04;38.88;;;6.28;;
46651;SDS011;32377;52.182;5.398;2023-03-25T05:58:29;35.92;;;5.28;;
46651;SDS011;32377;52.182;5.398;2023-03-25T06:00:56;43.80;;;5.78;;
46651;SDS011;32377;52.182;5.398;2023-03-25T06:03:23;39.58;;;6.10;;
46651;SDS011;32377;52.182;5.398;2023-03-25T06:05:50;35.15;;;4.88;;
46651;SDS011;32377;52.182;5.398;2023-03-25T06:08:17;30.83;;;4.20;;
46651;SDS011;32377;52.182;5.398;2023-03-25T06:10:49;35.78;;;5.25;;
46651;SDS011;32377;52.182;5.398;2023-03-25T06:13:25;29.83;;;4.10;;
46651;SDS011;32377;52.182;5.398;2023-03-25T06:15:51;31.20;;;5.28;;
46651;SDS011;32377;52.182;5.398;2023-03-25T06:18:22;34.35;;;5.43;;
46651;SDS011;32377;52.182;5.398;2023-03-25T06:20:49;29.90;;;5.70;;
46651;SDS011;32377;52.182;5.398;2023-03-25T06:23:17;29.92;;;5.10;;
46651;SDS011;32377;52.182;5.398;2023-03-25T06:25:46;38.60;;;5.85;;
46651;SDS011;32377;52.182;5.398;2023-03-25T06:28:13;41.75;;;5.07;;
46651;SDS011;32377;52.182;5.398;2023-03-25T06:30:42;37.10;;;5.00;;
46651;SDS011;32377;52.182;5.398;2023-03-25T06:33:11;31.08;;;4.88;;
46651;SDS011;32377;52.182;5.398;2023-03-25T06:35:38;29.85;;;5.38;;
46651;SDS011;32377;52.182;5.398;2023-03-25T06:38:05;42.75;;;6.20;;
46651;SDS011;32377;52.182;5.398;2023-03-25T06:40:31;26.08;;;4.78;;
46651;SDS011;32377;52.182;5.398;2023-03-25T06:42:56;32.13;;;5.20;;
46651;SDS011;32377;52.182;5.398;2023-03-25T06:45:22;23.95;;;4.32;;
46651;SDS011;32377;52.182;5.398;2023-03-25T06:47:47;31.98;;;4.97;;
46651;SDS011;32377;52.182;5.398;2023-03-25T06:50:13;32.17;;;5.60;;
46651;SDS011;32377;52.182;5.398;2023-03-25T06:52:39;33.70;;;4.95;;
46651;SDS011;32377;52.182;5.398;2023-03-25T06:55:05;34.80;;;5.75;;
46651;SDS011;32377;52.182;5.398;2023-03-25T06:57:30;27.70;;;4.57;;
46651;SDS011;32377;52.182;5.398;2023-03-25T06:59:56;37.92;;;5.75;;
46651;SDS011;32377;52.182;5.398;2023-03-25T07:02:22;38.08;;;5.25;;
46651;SDS011;32377;52.182;5.398;2023-03-25T07:04:47;39.80;;;5.53;;
46651;SDS011;32377;52.182;5.398;2023-03-25T07:07:13;32.75;;;4.55;;
46651;SDS011;32377;52.182;5.398;2023-03-25T07:09:39;34.75;;;5.63;;
46651;SDS011;32377;52.182;5.398;2023-03-25T07:12:05;31.58;;;4.88;;
46651;SDS011;32377;52.182;5.398;2023-03-25T07:14:30;42.92;;;5.93;;
46651;SDS011;32377;52.182;5.398;2023-03-25T07:16:56;28.73;;;5.22;;
46651;SDS011;32377;52.182;5.398;2023-03-25T07:19:22;28.80;;;4.60;;
46651;SDS011;32377;52.182;5.398;2023-03-25T07:21:47;39.78;;;5.05;;
46651;SDS011;32377;52.182;5.398;2023-03-25T07:24:13;34.28;;;5.65;;
46651;SDS011;32377;52.182;5.398;2023-03-25T07:26:38;34.13;;;5.30;;
46651;SDS011;32377;52.182;5.398;2023-03-25T07:29:04;33.20;;;4.78;;
46651;SDS011;32377;52.182;5.398;2023-03-25T07:31:30;34.38;;;5.30;;
46651;SDS011;32377;52.182;5.398;2023-03-25T07:33:56;38.67;;;6.53;;
46651;SDS011;32377;52.182;5.398;2023-03-25T07:36:23;32.50;;;4.97;;
46651;SDS011;32377;52.182;5.398;2023-03-25T07:38:50;39.45;;;5.70;;
46651;SDS011;32377;52.182;5.398;2023-03-25T07:41:17;29.30;;;5.20;;
46651;SDS011;32377;52.182;5.398;2023-03-25T07:43:43;30.55;;;5.05;;
46651;SDS011;32377;52.182;5.398;2023-03-25T07:46:10;26.50;;;5.15;;
46651;SDS011;32377;52.182;5.398;2023-03-25T07:48:36;23.98;;;4.63;;
46651;SDS011;32377;52.182;5.398;2023-03-25T07:51:01;31.33;;;5.65;;
46651;SDS011;32377;52.182;5.398;2023-03-25T07:53:27;31.13;;;4.38;;
46651;SDS011;32377;52.182;5.398;2023-03-25T07:55:53;35.72;;;5.05;;
46651;SDS011;32377;52.182;5.398;2023-03-25T07:58:19;27.02;;;4.40;;
46651;SDS011;32377;52.182;5.398;2023-03-25T08:00:44;41.33;;;6.45;;
46651;SDS011;32377;52.182;5.398;2023-03-25T08:03:10;29.50;;;5.20;;
46651;SDS011;32377;52.182;5.398;2023-03-25T08:05:36;32.33;;;3.92;;
46651;SDS011;32377;52.182;5.398;2023-03-25T08:08:03;29.73;;;4.25;;
46651;SDS011;32377;52.182;5.398;2023-03-25T08:10:30;29.08;;;5.25;;
46651;SDS011;32377;52.182;5.398;2023-03-25T08:12:56;33.58;;;4.15;;
46651;SDS011;32377;52.182;5.398;2023-03-25T08:15:21;30.40;;;4.63;;
46651;SDS011;32377;52.182;5.398;2023-03-25T08:17:52;32.58;;;5.15;;
46651;SDS011;32377;52.182;5.398;2023-03-25T08:20:17;37.20;;;6.88;;
46651;SDS011;32377;52.182;5.398;2023-03-25T08:22:44;37.08;;;5.20;;
46651;SDS011;32377;52.182;5.398;2023-03-25T08:25:10;34.80;;;5.07;;
46651;SDS011;32377;52.182;5.398;2023-03-25T08:27:36;26.67;;;4.65;;
46651;SDS011;32377;52.182;5.398;2023-03-25T08:30:02;35.90;;;5.28;;
46651;SDS011;32377;52.182;5.398;2023-03-25T08:32:28;30.55;;;5.03;;
46651;SDS011;32377;52.182;5.398;2023-03-25T08:34:54;27.10;;;4.68;;
46651;SDS011;32377;52.182;5.398;2023-03-25T08:37:20;38.40;;;6.18;;
46651;SDS011;32377;52.182;5.398;2023-03-25T08:39:47;40.00;;;6.10;;
46651;SDS011;32377;52.182;5.398;2023-03-25T08:42:14;27.42;;;4.70;;
46651;SDS011;32377;52.182;5.398;2023-03-25T08:44:41;26.15;;;3.95;;
46651;SDS011;32377;52.182;5.398;2023-03-25T08:47:07;33.58;;;4.97;;
46651;SDS011;32377;52.182;5.398;2023-03-25T08:49:33;31.13;;;6.03;;
46651;SDS011;32377;52.182;5.398;2023-03-25T08:51:59;31.52;;;5.93;;
46651;SDS011;32377;52.182;5.398;2023-03-25T08:54:25;35.10;;;5.32;;
46651;SDS011;32377;52.182;5.398;2023-03-25T08:56:52;42.70;;;5.32;;
46651;SDS011;32377;52.182;5.398;2023-03-25T08:59:17;30.60;;;4.63;;
46651;SDS011;32377;52.182;5.398;2023-03-25T09:01:43;34.75;;;4.95;;
46651;SDS011;32377;52.182;5.398;2023-03-25T09:04:09;31.55;;;5.13;;
46651;SDS011;32377;52.182;5.398;2023-03-25T09:06:36;43.03;;;5.47;;
46651;SDS011;32377;52.182;5.398;2023-03-25T09:09:03;34.80;;;5.95;;
46651;SDS011;32377;52.182;5.398;2023-03-25T09:11:30;29.40;;;5.00;;
46651;SDS011;32377;52.182;5.398;2023-03-25T09:13:56;35.30;;;5.35;;
46651;SDS011;32377;52.182;5.398;2023-03-25T09:16:22;37.00;;;5.68;;
46651;SDS011;32377;52.182;5.398;2023-03-25T09:18:48;31.20;;;4.72;;
46651;SDS011;32377;52.182;5.398;2023-03-25T09:21:13;27.77;;;5.30;;
46651;SDS011;32377;52.182;5.398;2023-03-25T09:23:39;21.45;;;3.95;;
46651;SDS011;32377;52.182;5.398;2023-03-25T09:26:05;39.22;;;5.00;;
46651;SDS011;32377;52.182;5.398;2023-03-25T09:28:31;34.70;;;4.85;;
46651;SDS011;32377;52.182;5.398;2023-03-25T09:30:57;31.73;;;4.43;;
46651;SDS011;32377;52.182;5.398;2023-03-25T09:33:22;27.75;;;4.18;;
46651;SDS011;32377;52.182;5.398;2023-03-25T09:35:49;26.77;;;3.78;;
46651;SDS011;32377;52.182;5.398;2023-03-25T09:38:15;27.42;;;4.55;;
46651;SDS011;32377;52.182;5.398;2023-03-25T09:40:43;30.58;;;4.97;;
46651;SDS011;32377;52.182;5.398;2023-03-25T09:45:39;25.88;;;4.50;;
46651;SDS011;32377;52.182;5.398;2023-03-25T09:48:16;32.60;;;4.47;;
46651;SDS011;32377;52.182;5.398;2023-03-25T09:50:54;34.85;;;5.28;;
46651;SDS011;32377;52.182;5.398;2023-03-25T09:53:36;31.67;;;4.30;;
46651;SDS011;32377;52.182;5.398;2023-03-25T09:56:10;25.50;;;3.65;;
46651;SDS011;32377;52.182;5.398;2023-03-25T09:58:59;36.03;;;5.10;;
46651;SDS011;32377;52.182;5.398;2023-03-25T10:01:46;31.02;;;4.55;;
46651;SDS011;32377;52.182;5.398;2023-03-25T10:04:44;27.75;;;4.53;;
46651;SDS011;32377;52.182;5.398;2023-03-25T10:13:06;23.13;;;4.72;;
46651;SDS011;32377;52.182;5.398;2023-03-25T10:15:39;32.35;;;4.57;;
46651;SDS011;32377;52.182;5.398;2023-03-25T10:18:39;15.63;;;3.58;;
46651;SDS011;32377;52.182;5.398;2023-03-25T10:21:13;35.33;;;5.20;;
46651;SDS011;32377;52.182;5.398;2023-03-25T10:29:36;32.97;;;4.88;;
46651;SDS011;32377;52.182;5.398;2023-03-25T10:32:16;26.42;;;4.35;;
46651;SDS011;32377;52.182;5.398;2023-03-25T10:34:52;27.48;;;3.97;;
46651;SDS011;32377;52.182;5.398;2023-03-25T10:37:27;22.30;;;3.67;;
46651;SDS011;32377;52.182;5.398;2023-03-25T10:39:59;30.27;;;3.97;;
46651;SDS011;32377;52.182;5.398;2023-03-25T10:42:38;22.98;;;4.90;;
46651;SDS011;32377;52.182;5.398;2023-03-25T10:45:12;23.60;;;4.80;;
46651;SDS011;32377;52.182;5.398;2023-03-25T10:47:39;28.88;;;5.18;;
46651;SDS011;32377;52.182;5.398;2023-03-25T10:50:09;29.88;;;4.05;;
46651;SDS011;32377;52.182;5.398;2023-03-25T10:52:40;14.02;;;3.80;;
46651;SDS011;32377;52.182;5.398;2023-03-25T10:55:20;20.52;;;3.00;;
46651;SDS011;32377;52.182;5.398;2023-03-25T10:59:55;23.27;;;4.15;;
46651;SDS011;32377;52.182;5.398;2023-03-25T11:02:26;25.63;;;4.18;;
46651;SDS011;32377;52.182;5.398;2023-03-25T11:04:57;35.83;;;4.43;;
46651;SDS011;32377;52.182;5.398;2023-03-25T11:10:08;22.67;;;4.13;;
46651;SDS011;32377;52.182;5.398;2023-03-25T11:12:54;27.27;;;3.83;;
46651;SDS011;32377;52.182;5.398;2023-03-25T11:15:28;29.00;;;4.82;;
46651;SDS011;32377;52.182;5.398;2023-03-25T11:17:55;20.85;;;4.35;;
46651;SDS011;32377;52.182;5.398;2023-03-25T11:20:37;35.57;;;4.63;;
46651;SDS011;32377;52.182;5.398;2023-03-25T11:25:54;22.48;;;4.38;;
46651;SDS011;32377;52.182;5.398;2023-03-25T11:28:39;25.80;;;4.13;;
46651;SDS011;32377;52.182;5.398;2023-03-25T11:31:14;15.98;;;3.22;;
46651;SDS011;32377;52.182;5.398;2023-03-25T11:33:45;22.90;;;3.20;;
46651;SDS011;32377;52.182;5.398;2023-03-25T11:36:34;26.33;;;4.00;;
46651;SDS011;32377;52.182;5.398;2023-03-25T11:41:50;17.17;;;3.28;;
46651;SDS011;32377;52.182;5.398;2023-03-25T11:44:24;18.55;;;3.55;;
46651;SDS011;32377;52.182;5.398;2023-03-25T11:46:56;20.60;;;3.47;;
46651;SDS011;32377;52.182;5.398;2023-03-25T11:49:26;24.88;;;4.80;;
46651;SDS011;32377;52.182;5.398;2023-03-25T11:51:55;33.88;;;4.40;;
46651;SDS011;32377;52.182;5.398;2023-03-25T11:54:27;26.35;;;3.80;;
46651;SDS011;32377;52.182;5.398;2023-03-25T11:56:53;18.42;;;3.75;;
46651;SDS011;32377;52.182;5.398;2023-03-25T11:59:22;21.17;;;3.92;;
46651;SDS011;32377;52.182;5.398;2023-03-25T12:02:00;20.08;;;3.65;;
46651;SDS011;32377;52.182;5.398;2023-03-25T12:04:28;18.55;;;3.40;;
46651;SDS011;32377;52.182;5.398;2023-03-25T12:07:05;24.77;;;3.65;;
46651;SDS011;32377;52.182;5.398;2023-03-25T12:09:33;22.00;;;3.80;;
46651;SDS011;32377;52.182;5.398;2023-03-25T12:22:16;24.58;;;3.72;;
46651;SDS011;32377;52.182;5.398;2023-03-25T12:27:55;24.60;;;4.20;;
46651;SDS011;32377;52.182;5.398;2023-03-25T12:30:47;25.48;;;3.58;;
46651;SDS011;32377;52.182;5.398;2023-03-25T12:33:44;18.75;;;3.85;;
46651;SDS011;32377;52.182;5.398;2023-03-25T12:45:37;26.88;;;4.30;;
46651;SDS011;32377;52.182;5.398;2023-03-25T12:48:33;25.35;;;3.42;;
46651;SDS011;32377;52.182;5.398;2023-03-25T12:51:08;20.48;;;4.15;;
46651;SDS011;32377;52.182;5.398;2023-03-25T12:56:30;20.05;;;3.30;;
46651;SDS011;32377;52.182;5.398;2023-03-25T12:59:29;17.98;;;3.42;;
46651;SDS011;32377;52.182;5.398;2023-03-25T13:07:48;18.88;;;3.50;;
46651;SDS011;32377;52.182;5.398;2023-03-25T13:10:19;25.70;;;3.85;;
46651;SDS011;32377;52.182;5.398;2023-03-25T13:12:53;21.10;;;3.88;;
46651;SDS011;32377;52.182;5.398;2023-03-25T13:15:34;14.38;;;3.67;;
46651;SDS011;32377;52.182;5.398;2023-03-25T13:23:07;22.25;;;3.97;;
46651;SDS011;32377;52.182;5.398;2023-03-25T13:25:47;20.45;;;3.17;;
46651;SDS011;32377;52.182;5.398;2023-03-25T13:28:25;21.00;;;3.15;;
46651;SDS011;32377;52.182;5.398;2023-03-25T13:31:02;12.43;;;2.75;;
46651;SDS011;32377;52.182;5.398;2023-03-25T13:33:36;12.23;;;2.63;;
46651;SDS011;32377;52.182;5.398;2023-03-25T13:36:12;17.98;;;3.53;;
46651;SDS011;32377;52.182;5.398;2023-03-25T13:39:05;15.82;;;2.80;;
46651;SDS011;32377;52.182;5.398;2023-03-25T13:41:49;15.70;;;2.42;;
46651;SDS011;32377;52.182;5.398;2023-03-25T13:44:30;12.85;;;2.72;;
46651;SDS011;32377;52.182;5.398;2023-03-25T13:49:40;16.02;;;3.05;;
46651;SDS011;32377;52.182;5.398;2023-03-25T13:52:14;13.75;;;3.05;;
46651;SDS011;32377;52.182;5.398;2023-03-25T13:54:51;12.82;;;3.40;;
46651;SDS011;32377;52.182;5.398;2023-03-25T14:14:10;8.70;;;2.15;;
46651;SDS011;32377;52.182;5.398;2023-03-25T14:16:40;15.93;;;2.17;;
46651;SDS011;32377;52.182;5.398;2023-03-25T14:19:10;8.75;;;1.83;;
46651;SDS011;32377;52.182;5.398;2023-03-25T14:21:40;10.07;;;1.55;;
46651;SDS011;32377;52.182;5.398;2023-03-25T14:27:01;7.93;;;1.45;;
46651;SDS011;32377;52.182;5.398;2023-03-25T14:29:37;14.55;;;2.08;;
46651;SDS011;32377;52.182;5.398;2023-03-25T14:34:41;22.77;;;3.35;;
46651;SDS011;32377;52.182;5.398;2023-03-25T14:39:38;21.17;;;2.95;;
46651;SDS011;32377;52.182;5.398;2023-03-25T14:44:36;17.92;;;4.20;;
46651;SDS011;32377;52.182;5.398;2023-03-25T14:49:47;15.32;;;3.20;;
46651;SDS011;32377;52.182;5.398;2023-03-25T14:54:55;20.65;;;3.28;;
46651;SDS011;32377;52.182;5.398;2023-03-25T14:57:21;26.15;;;3.38;;
46651;SDS011;32377;52.182;5.398;2023-03-25T14:59:50;24.60;;;3.83;;
46651;SDS011;32377;52.182;5.398;2023-03-25T15:02:24;18.52;;;3.92;;
46651;SDS011;32377;52.182;5.398;2023-03-25T15:04:59;23.20;;;3.30;;
46651;SDS011;32377;52.182;5.398;2023-03-25T15:07:48;21.15;;;3.80;;
46651;SDS011;32377;52.182;5.398;2023-03-25T15:10:24;22.45;;;3.53;;
46651;SDS011;32377;52.182;5.398;2023-03-25T15:12:55;15.30;;;2.85;;
46651;SDS011;32377;52.182;5.398;2023-03-25T15:15:31;16.45;;;2.90;;
46651;SDS011;32377;52.182;5.398;2023-03-25T15:18:10;13.18;;;2.03;;
46651;SDS011;32377;52.182;5.398;2023-03-25T15:20:36;11.30;;;1.50;;
46651;SDS011;32377;52.182;5.398;2023-03-25T15:25:47;11.40;;;1.38;;
46651;SDS011;32377;52.182;5.398;2023-03-25T15:28:32;5.63;;;0.90;;
46651;SDS011;32377;52.182;5.398;2023-03-25T15:36:45;4.35;;;1.02;;
46651;SDS011;32377;52.182;5.398;2023-03-25T15:39:30;3.13;;;1.00;;
46651;SDS011;32377;52.182;5.398;2023-03-25T15:45:12;2.30;;;1.02;;
46651;SDS011;32377;52.182;5.398;2023-03-25T15:55:34;3.97;;;1.08;;
46651;SDS011;32377;52.182;5.398;2023-03-25T15:58:46;8.73;;;1.00;;
46651;SDS011;32377;52.182;5.398;2023-03-25T16:00:58;8.80;;;1.42;;
46651;SDS011;32377;52.182;5.398;2023-03-25T16:03:30;12.23;;;1.80;;
46651;SDS011;32377;52.182;5.398;2023-03-25T16:05:59;15.60;;;2.53;;
46651;SDS011;32377;52.182;5.398;2023-03-25T16:08:38;10.07;;;2.00;;
46651;SDS011;32377;52.182;5.398;2023-03-25T16:13:44;13.65;;;2.58;;
46651;SDS011;32377;52.182;5.398;2023-03-25T16:16:11;15.55;;;2.47;;
46651;SDS011;32377;52.182;5.398;2023-03-25T16:18:40;19.10;;;3.60;;
46651;SDS011;32377;52.182;5.398;2023-03-25T16:21:09;18.80;;;2.85;;
46651;SDS011;32377;52.182;5.398;2023-03-25T16:23:35;15.27;;;2.58;;
46651;SDS011;32377;52.182;5.398;2023-03-25T16:26:02;15.93;;;2.45;;
46651;SDS011;32377;52.182;5.398;2023-03-25T16:28:39;13.55;;;2.95;;
46651;SDS011;32377;52.182;5.398;2023-03-25T16:31:26;10.77;;;1.30;;
46651;SDS011;32377;52.182;5.398;2023-03-25T16:33:57;8.48;;;2.05;;
46651;SDS011;32377;52.182;5.398;2023-03-25T16:36:24;9.30;;;1.65;;
46651;SDS011;32377;52.182;5.398;2023-03-25T16:38:51;10.25;;;1.52;;
46651;SDS011;32377;52.182;5.398;2023-03-25T16:41:16;8.63;;;1.40;;
46651;SDS011;32377;52.182;5.398;2023-03-25T16:43:42;7.55;;;1.30;;
46651;SDS011;32377;52.182;5.398;2023-03-25T16:46:09;6.03;;;1.30;;
46651;SDS011;32377;52.182;5.398;2023-03-25T16:48:36;7.90;;;1.98;;
46651;SDS011;32377;52.182;5.398;2023-03-25T16:51:21;6.75;;;2.13;;
46651;SDS011;32377;52.182;5.398;2023-03-25T16:53:52;9.00;;;1.48;;
46651;SDS011;32377;52.182;5.398;2023-03-25T16:59:16;9.15;;;2.38;;
46651;SDS011;32377;52.182;5.398;2023-03-25T17:01:52;9.68;;;2.17;;
46651;SDS011;32377;52.182;5.398;2023-03-25T17:04:26;14.95;;;2.53;;
46651;SDS011;32377;52.182;5.398;2023-03-25T17:07:16;20.80;;;3.75;;
46651;SDS011;32377;52.182;5.398;2023-03-25T17:09:44;18.40;;;2.50;;
46651;SDS011;32377;52.182;5.398;2023-03-25T17:12:15;20.60;;;2.80;;
46651;SDS011;32377;52.182;5.398;2023-03-25T17:14:44;27.55;;;3.25;;
46651;SDS011;32377;52.182;5.398;2023-03-25T17:17:20;14.75;;;2.72;;
46651;SDS011;32377;52.182;5.398;2023-03-25T17:20:04;21.20;;;3.40;;
46651;SDS011;32377;52.182;5.398;2023-03-25T17:22:36;19.75;;;3.70;;
46651;SDS011;32377;52.182;5.398;2023-03-25T17:27:52;25.88;;;3.47;;
46651;SDS011;32377;52.182;5.398;2023-03-25T17:33:11;31.67;;;4.28;;
46651;SDS011;32377;52.182;5.398;2023-03-25T17:35:40;35.88;;;4.50;;
46651;SDS011;32377;52.182;5.398;2023-03-25T17:38:10;33.50;;;4.85;;
46651;SDS011;32377;52.182;5.398;2023-03-25T17:40:43;34.22;;;4.20;;
46651;SDS011;32377;52.182;5.398;2023-03-25T17:43:14;24.08;;;4.75;;
46651;SDS011;32377;52.182;5.398;2023-03-25T17:45:42;30.33;;;4.35;;
46651;SDS011;32377;52.182;5.398;2023-03-25T17:48:09;34.63;;;4.53;;
46651;SDS011;32377;52.182;5.398;2023-03-25T17:50:47;36.05;;;4.75;;
46651;SDS011;32377;52.182;5.398;2023-03-25T17:53:14;25.52;;;4.53;;
46651;SDS011;32377;52.182;5.398;2023-03-25T17:55:40;30.80;;;4.75;;